Grand Island, New York
Current Conditions -  °F | °C
As of 11:09 PM on Thursday 27 Nov 2014 (Local Time) from KIAG Reporting Station
Moderate Snow Moderate Snow  
Wind Chill: 20°   Ceiling: 600
Heat Index: 28°   Visibility: 0.5mi
Dew Point: 26°   Wind: 8mph
Humidity: 92%   Direction: 340°NNW
Pressure: 30.12"   Gusts: NA
Location:  43.02°N, 78.96°W
Report Text: KIAG 280409Z AUTO 34007KT 1/2SM R28R/5000VP6000FT SN FZFG VV006 M02/M03 A3012 RMK AO2 P0000 T10221033
Loading
Personal Weather Stations






























Interactive Weather Map New forecast layout! Learn more

10-Day Weather Forecast

Advertisements
Track Severe Weather on mobile